sensor_id;sensor_type;location;lat;lon;timestamp;P1;durP1;ratioP1;P2;durP2;ratioP2
64986;SDS011;67903;52.108;9.358;2023-09-08T00:01:02;9.65;;;8.60;;
64986;SDS011;67903;52.108;9.358;2023-09-08T00:03:48;8.63;;;7.65;;
64986;SDS011;67903;52.108;9.358;2023-09-08T00:06:33;9.77;;;8.23;;
64986;SDS011;67903;52.108;9.358;2023-09-08T00:09:19;7.93;;;7.10;;
64986;SDS011;67903;52.108;9.358;2023-09-08T00:12:04;7.93;;;7.22;;
64986;SDS011;67903;52.108;9.358;2023-09-08T00:14:50;8.43;;;7.53;;
64986;SDS011;67903;52.108;9.358;2023-09-08T00:17:36;8.95;;;8.02;;
64986;SDS011;67903;52.108;9.358;2023-09-08T00:20:21;7.78;;;7.00;;
64986;SDS011;67903;52.108;9.358;2023-09-08T00:23:07;8.13;;;7.32;;
64986;SDS011;67903;52.108;9.358;2023-09-08T00:25:52;7.13;;;6.53;;
64986;SDS011;67903;52.108;9.358;2023-09-08T00:28:38;8.05;;;7.10;;
64986;SDS011;67903;52.108;9.358;2023-09-08T00:31:24;8.60;;;7.88;;
64986;SDS011;67903;52.108;9.358;2023-09-08T00:34:09;7.88;;;7.07;;
64986;SDS011;67903;52.108;9.358;2023-09-08T00:36:55;7.15;;;6.45;;
64986;SDS011;67903;52.108;9.358;2023-09-08T00:39:40;10.05;;;6.68;;
64986;SDS011;67903;52.108;9.358;2023-09-08T00:42:26;7.72;;;6.35;;
64986;SDS011;67903;52.108;9.358;2023-09-08T00:45:11;7.75;;;6.47;;
64986;SDS011;67903;52.108;9.358;2023-09-08T00:47:57;9.15;;;6.65;;
64986;SDS011;67903;52.108;9.358;2023-09-08T00:50:43;8.50;;;7.47;;
64986;SDS011;67903;52.108;9.358;2023-09-08T00:53:29;9.77;;;6.80;;
64986;SDS011;67903;52.108;9.358;2023-09-08T00:56:15;8.82;;;7.18;;
64986;SDS011;67903;52.108;9.358;2023-09-08T00:59:01;9.00;;;7.20;;
64986;SDS011;67903;52.108;9.358;2023-09-08T01:01:48;7.38;;;6.78;;
64986;SDS011;67903;52.108;9.358;2023-09-08T01:04:33;9.73;;;7.40;;
64986;SDS011;67903;52.108;9.358;2023-09-08T01:07:19;8.30;;;7.07;;
64986;SDS011;67903;52.108;9.358;2023-09-08T01:10:05;8.48;;;7.05;;
64986;SDS011;67903;52.108;9.358;2023-09-08T01:12:52;8.52;;;7.15;;
64986;SDS011;67903;52.108;9.358;2023-09-08T01:18:57;8.52;;;6.68;;
64986;SDS011;67903;52.108;9.358;2023-09-08T01:27:28;7.72;;;6.93;;
64986;SDS011;67903;52.108;9.358;2023-09-08T01:30:17;9.32;;;6.93;;
64986;SDS011;67903;52.108;9.358;2023-09-08T01:33:03;8.60;;;7.10;;
64986;SDS011;67903;52.108;9.358;2023-09-08T01:35:49;7.97;;;7.00;;
64986;SDS011;67903;52.108;9.358;2023-09-08T01:38:37;7.40;;;6.70;;
64986;SDS011;67903;52.108;9.358;2023-09-08T01:41:22;7.30;;;6.60;;
64986;SDS011;67903;52.108;9.358;2023-09-08T01:44:08;7.38;;;6.68;;
64986;SDS011;67903;52.108;9.358;2023-09-08T01:46:55;6.85;;;6.28;;
64986;SDS011;67903;52.108;9.358;2023-09-08T01:49:42;7.53;;;6.82;;
64986;SDS011;67903;52.108;9.358;2023-09-08T01:52:27;7.68;;;6.97;;
64986;SDS011;67903;52.108;9.358;2023-09-08T01:55:13;6.28;;;5.75;;
64986;SDS011;67903;52.108;9.358;2023-09-08T01:58:01;7.70;;;6.88;;
64986;SDS011;67903;52.108;9.358;2023-09-08T02:00:50;7.38;;;6.68;;
64986;SDS011;67903;52.108;9.358;2023-09-08T02:03:36;9.65;;;6.85;;
64986;SDS011;67903;52.108;9.358;2023-09-08T02:06:21;7.32;;;6.45;;
64986;SDS011;67903;52.108;9.358;2023-09-08T02:09:07;7.10;;;6.40;;
64986;SDS011;67903;52.108;9.358;2023-09-08T02:11:55;7.53;;;6.72;;
64986;SDS011;67903;52.108;9.358;2023-09-08T02:14:40;8.07;;;6.75;;
64986;SDS011;67903;52.108;9.358;2023-09-08T02:17:26;7.60;;;6.90;;
64986;SDS011;67903;52.108;9.358;2023-09-08T02:20:11;9.45;;;7.22;;
64986;SDS011;67903;52.108;9.358;2023-09-08T02:22:57;8.07;;;7.28;;
64986;SDS011;67903;52.108;9.358;2023-09-08T02:25:50;7.93;;;7.20;;
64986;SDS011;67903;52.108;9.358;2023-09-08T02:28:35;8.35;;;7.07;;
64986;SDS011;67903;52.108;9.358;2023-09-08T02:31:21;8.32;;;7.55;;
64986;SDS011;67903;52.108;9.358;2023-09-08T02:34:07;10.10;;;8.30;;
64986;SDS011;67903;52.108;9.358;2023-09-08T02:36:53;7.93;;;7.13;;
64986;SDS011;67903;52.108;9.358;2023-09-08T02:39:42;8.65;;;7.85;;
64986;SDS011;67903;52.108;9.358;2023-09-08T02:42:28;8.80;;;7.93;;
64986;SDS011;67903;52.108;9.358;2023-09-08T02:45:14;10.65;;;8.30;;
64986;SDS011;67903;52.108;9.358;2023-09-08T02:48:00;9.07;;;7.88;;
64986;SDS011;67903;52.108;9.358;2023-09-08T02:50:47;9.23;;;8.30;;
64986;SDS011;67903;52.108;9.358;2023-09-08T02:53:32;9.02;;;7.93;;
64986;SDS011;67903;52.108;9.358;2023-09-08T02:56:18;10.73;;;8.40;;
64986;SDS011;67903;52.108;9.358;2023-09-08T02:59:04;8.80;;;7.90;;
64986;SDS011;67903;52.108;9.358;2023-09-08T03:01:49;8.88;;;8.00;;
64986;SDS011;67903;52.108;9.358;2023-09-08T03:04:36;9.07;;;8.27;;
64986;SDS011;67903;52.108;9.358;2023-09-08T03:07:22;8.88;;;8.07;;
64986;SDS011;67903;52.108;9.358;2023-09-08T03:10:08;9.32;;;8.10;;
64986;SDS011;67903;52.108;9.358;2023-09-08T03:12:54;8.68;;;7.78;;
64986;SDS011;67903;52.108;9.358;2023-09-08T03:15:40;8.90;;;8.00;;
64986;SDS011;67903;52.108;9.358;2023-09-08T03:18:25;9.52;;;8.55;;
64986;SDS011;67903;52.108;9.358;2023-09-08T03:21:13;9.10;;;8.07;;
64986;SDS011;67903;52.108;9.358;2023-09-08T03:23:59;8.93;;;8.00;;
64986;SDS011;67903;52.108;9.358;2023-09-08T03:26:44;8.70;;;7.80;;
64986;SDS011;67903;52.108;9.358;2023-09-08T03:29:30;8.55;;;7.75;;
64986;SDS011;67903;52.108;9.358;2023-09-08T03:32:16;8.05;;;7.25;;
64986;SDS011;67903;52.108;9.358;2023-09-08T03:35:02;8.25;;;7.05;;
64986;SDS011;67903;52.108;9.358;2023-09-08T03:37:51;8.98;;;7.68;;
64986;SDS011;67903;52.108;9.358;2023-09-08T03:40:36;8.68;;;7.80;;
64986;SDS011;67903;52.108;9.358;2023-09-08T03:43:22;8.95;;;8.05;;
64986;SDS011;67903;52.108;9.358;2023-09-08T03:46:08;8.05;;;7.35;;
64986;SDS011;67903;52.108;9.358;2023-09-08T03:48:54;7.82;;;7.13;;
64986;SDS011;67903;52.108;9.358;2023-09-08T03:51:43;8.48;;;7.60;;
64986;SDS011;67903;52.108;9.358;2023-09-08T03:54:29;8.65;;;7.85;;
64986;SDS011;67903;52.108;9.358;2023-09-08T03:57:15;8.68;;;7.78;;
64986;SDS011;67903;52.108;9.358;2023-09-08T04:00:00;7.97;;;7.13;;
64986;SDS011;67903;52.108;9.358;2023-09-08T04:02:46;9.43;;;7.60;;
64986;SDS011;67903;52.108;9.358;2023-09-08T04:05:31;8.38;;;7.18;;
64986;SDS011;67903;52.108;9.358;2023-09-08T04:08:17;8.40;;;7.60;;
64986;SDS011;67903;52.108;9.358;2023-09-08T04:11:02;10.90;;;7.72;;
64986;SDS011;67903;52.108;9.358;2023-09-08T04:13:48;10.60;;;7.07;;
64986;SDS011;67903;52.108;9.358;2023-09-08T04:16:33;8.80;;;7.18;;
64986;SDS011;67903;52.108;9.358;2023-09-08T04:19:19;8.05;;;7.25;;
64986;SDS011;67903;52.108;9.358;2023-09-08T04:22:04;7.72;;;7.03;;
64986;SDS011;67903;52.108;9.358;2023-09-08T04:24:50;8.48;;;7.68;;
64986;SDS011;67903;52.108;9.358;2023-09-08T04:27:35;8.45;;;6.93;;
64986;SDS011;67903;52.108;9.358;2023-09-08T04:30:22;9.55;;;8.07;;
64986;SDS011;67903;52.108;9.358;2023-09-08T04:33:07;8.25;;;7.45;;
64986;SDS011;67903;52.108;9.358;2023-09-08T04:35:53;11.30;;;7.30;;
64986;SDS011;67903;52.108;9.358;2023-09-08T04:38:39;9.32;;;7.65;;
64986;SDS011;67903;52.108;9.358;2023-09-08T04:41:27;9.57;;;8.13;;
64986;SDS011;67903;52.108;9.358;2023-09-08T04:44:14;9.60;;;7.90;;
64986;SDS011;67903;52.108;9.358;2023-09-08T04:46:59;9.80;;;8.02;;
64986;SDS011;67903;52.108;9.358;2023-09-08T04:49:46;12.32;;;8.63;;
64986;SDS011;67903;52.108;9.358;2023-09-08T04:52:32;10.73;;;8.95;;
64986;SDS011;67903;52.108;9.358;2023-09-08T04:55:19;10.65;;;8.35;;
64986;SDS011;67903;52.108;9.358;2023-09-08T04:58:05;11.02;;;8.63;;
64986;SDS011;67903;52.108;9.358;2023-09-08T05:00:51;10.93;;;8.90;;
64986;SDS011;67903;52.108;9.358;2023-09-08T05:03:36;9.73;;;8.73;;
64986;SDS011;67903;52.108;9.358;2023-09-08T05:06:24;13.73;;;9.85;;
64986;SDS011;67903;52.108;9.358;2023-09-08T05:09:10;9.60;;;8.65;;
64986;SDS011;67903;52.108;9.358;2023-09-08T05:11:56;10.07;;;8.95;;
64986;SDS011;67903;52.108;9.358;2023-09-08T05:14:44;9.95;;;8.95;;
64986;SDS011;67903;52.108;9.358;2023-09-08T05:17:30;11.93;;;9.68;;
64986;SDS011;67903;52.108;9.358;2023-09-08T05:20:16;14.63;;;12.40;;
64986;SDS011;67903;52.108;9.358;2023-09-08T05:23:02;11.95;;;10.75;;
64986;SDS011;67903;52.108;9.358;2023-09-08T05:25:48;17.23;;;13.07;;
64986;SDS011;67903;52.108;9.358;2023-09-08T05:28:34;16.13;;;10.60;;
64986;SDS011;67903;52.108;9.358;2023-09-08T05:31:24;11.43;;;10.18;;
64986;SDS011;67903;52.108;9.358;2023-09-08T05:34:11;16.02;;;14.32;;
64986;SDS011;67903;52.108;9.358;2023-09-08T05:36:57;10.50;;;9.50;;
64986;SDS011;67903;52.108;9.358;2023-09-08T05:39:43;12.20;;;10.50;;
64986;SDS011;67903;52.108;9.358;2023-09-08T05:42:28;11.32;;;9.68;;
64986;SDS011;67903;52.108;9.358;2023-09-08T05:45:14;12.80;;;9.77;;
64986;SDS011;67903;52.108;9.358;2023-09-08T05:48:01;10.43;;;9.30;;
64986;SDS011;67903;52.108;9.358;2023-09-08T05:50:48;10.35;;;9.10;;
64986;SDS011;67903;52.108;9.358;2023-09-08T05:53:33;10.65;;;9.48;;
64986;SDS011;67903;52.108;9.358;2023-09-08T05:56:24;10.73;;;9.60;;
64986;SDS011;67903;52.108;9.358;2023-09-08T05:59:14;11.75;;;9.30;;
64986;SDS011;67903;52.108;9.358;2023-09-08T06:02:01;11.65;;;9.48;;
64986;SDS011;67903;52.108;9.358;2023-09-08T06:04:47;13.32;;;9.88;;
64986;SDS011;67903;52.108;9.358;2023-09-08T06:07:33;11.40;;;9.57;;
64986;SDS011;67903;52.108;9.358;2023-09-08T06:10:22;14.00;;;9.25;;
64986;SDS011;67903;52.108;9.358;2023-09-08T06:13:08;11.15;;;9.27;;
64986;SDS011;67903;52.108;9.358;2023-09-08T06:15:54;11.07;;;8.70;;
64986;SDS011;67903;52.108;9.358;2023-09-08T06:18:39;11.40;;;9.25;;
64986;SDS011;67903;52.108;9.358;2023-09-08T06:21:29;10.75;;;8.57;;
64986;SDS011;67903;52.108;9.358;2023-09-08T06:24:15;10.65;;;8.65;;
64986;SDS011;67903;52.108;9.358;2023-09-08T06:27:01;10.13;;;8.93;;
64986;SDS011;67903;52.108;9.358;2023-09-08T06:29:47;9.15;;;8.25;;
64986;SDS011;67903;52.108;9.358;2023-09-08T06:32:33;11.93;;;8.80;;
64986;SDS011;67903;52.108;9.358;2023-09-08T06:35:18;11.77;;;9.00;;
64986;SDS011;67903;52.108;9.358;2023-09-08T06:38:04;10.73;;;8.98;;
64986;SDS011;67903;52.108;9.358;2023-09-08T06:40:50;9.90;;;8.65;;
64986;SDS011;67903;52.108;9.358;2023-09-08T06:43:38;10.20;;;9.00;;
64986;SDS011;67903;52.108;9.358;2023-09-08T06:46:32;10.48;;;8.90;;
64986;SDS011;67903;52.108;9.358;2023-09-08T06:49:18;10.35;;;9.05;;
64986;SDS011;67903;52.108;9.358;2023-09-08T06:52:04;12.68;;;8.82;;
64986;SDS011;67903;52.108;9.358;2023-09-08T06:54:50;11.25;;;9.35;;
64986;SDS011;67903;52.108;9.358;2023-09-08T06:57:35;13.60;;;8.52;;
64986;SDS011;67903;52.108;9.358;2023-09-08T07:00:21;10.90;;;8.65;;
64986;SDS011;67903;52.108;9.358;2023-09-08T07:03:06;9.48;;;8.57;;
64986;SDS011;67903;52.108;9.358;2023-09-08T07:05:53;9.02;;;8.13;;
64986;SDS011;67903;52.108;9.358;2023-09-08T07:08:40;10.05;;;8.30;;
64986;SDS011;67903;52.108;9.358;2023-09-08T07:11:25;9.57;;;8.15;;
64986;SDS011;67903;52.108;9.358;2023-09-08T07:14:12;8.50;;;7.60;;
64986;SDS011;67903;52.108;9.358;2023-09-08T07:16:57;9.32;;;8.13;;
64986;SDS011;67903;52.108;9.358;2023-09-08T07:19:44;8.38;;;7.53;;
64986;SDS011;67903;52.108;9.358;2023-09-08T07:22:30;9.40;;;7.63;;
64986;SDS011;67903;52.108;9.358;2023-09-08T07:25:16;7.80;;;7.10;;
64986;SDS011;67903;52.108;9.358;2023-09-08T07:28:03;9.98;;;7.57;;
64986;SDS011;67903;52.108;9.358;2023-09-08T07:30:49;8.20;;;7.50;;
64986;SDS011;67903;52.108;9.358;2023-09-08T07:33:34;7.72;;;7.05;;
64986;SDS011;67903;52.108;9.358;2023-09-08T07:36:20;8.73;;;7.20;;
64986;SDS011;67903;52.108;9.358;2023-09-08T07:39:06;9.88;;;6.93;;
64986;SDS011;67903;52.108;9.358;2023-09-08T07:41:51;9.15;;;7.47;;
64986;SDS011;67903;52.108;9.358;2023-09-08T07:44:38;8.93;;;7.57;;
64986;SDS011;67903;52.108;9.358;2023-09-08T07:47:23;9.45;;;7.07;;
64986;SDS011;67903;52.108;9.358;2023-09-08T07:50:23;10.52;;;7.88;;
64986;SDS011;67903;52.108;9.358;2023-09-08T07:53:09;10.77;;;7.97;;
64986;SDS011;67903;52.108;9.358;2023-09-08T07:55:55;7.97;;;7.18;;
64986;SDS011;67903;52.108;9.358;2023-09-08T07:58:41;8.73;;;7.53;;
64986;SDS011;67903;52.108;9.358;2023-09-08T08:01:26;9.68;;;6.82;;
64986;SDS011;67903;52.108;9.358;2023-09-08T08:04:12;9.35;;;7.32;;
64986;SDS011;67903;52.108;9.358;2023-09-08T08:06:57;10.48;;;7.30;;
64986;SDS011;67903;52.108;9.358;2023-09-08T08:09:43;8.20;;;7.40;;
64986;SDS011;67903;52.108;9.358;2023-09-08T08:12:28;11.77;;;7.28;;
64986;SDS011;67903;52.108;9.358;2023-09-08T08:15:14;9.18;;;7.18;;
64986;SDS011;67903;52.108;9.358;2023-09-08T08:17:59;8.30;;;6.50;;
64986;SDS011;67903;52.108;9.358;2023-09-08T08:20:45;7.53;;;6.82;;
64986;SDS011;67903;52.108;9.358;2023-09-08T08:23:31;7.20;;;6.50;;
64986;SDS011;67903;52.108;9.358;2023-09-08T08:26:18;9.13;;;6.80;;
64986;SDS011;67903;52.108;9.358;2023-09-08T08:29:04;7.75;;;6.28;;
64986;SDS011;67903;52.108;9.358;2023-09-08T08:31:49;6.90;;;5.97;;
64986;SDS011;67903;52.108;9.358;2023-09-08T08:34:35;9.85;;;6.80;;
64986;SDS011;67903;52.108;9.358;2023-09-08T08:37:20;7.43;;;6.68;;
64986;SDS011;67903;52.108;9.358;2023-09-08T08:40:06;7.47;;;6.65;;
64986;SDS011;67903;52.108;9.358;2023-09-08T08:42:56;7.05;;;6.00;;
64986;SDS011;67903;52.108;9.358;2023-09-08T08:45:46;7.10;;;6.40;;
64986;SDS011;67903;52.108;9.358;2023-09-08T08:48:34;6.78;;;5.68;;
64986;SDS011;67903;52.108;9.358;2023-09-08T08:51:22;6.25;;;5.68;;
64986;SDS011;67903;52.108;9.358;2023-09-08T08:54:09;6.55;;;5.80;;
64986;SDS011;67903;52.108;9.358;2023-09-08T08:56:57;7.45;;;6.75;;
64986;SDS011;67903;52.108;9.358;2023-09-08T08:59:44;8.77;;;5.50;;
64986;SDS011;67903;52.108;9.358;2023-09-08T09:02:30;8.25;;;6.55;;
64986;SDS011;67903;52.108;9.358;2023-09-08T09:05:16;8.50;;;6.00;;
64986;SDS011;67903;52.108;9.358;2023-09-08T09:08:03;6.72;;;5.70;;
64986;SDS011;67903;52.108;9.358;2023-09-08T09:10:50;6.70;;;5.97;;
64986;SDS011;67903;52.108;9.358;2023-09-08T09:13:37;7.40;;;6.03;;
64986;SDS011;67903;52.108;9.358;2023-09-08T09:16:22;6.20;;;5.60;;
64986;SDS011;67903;52.108;9.358;2023-09-08T09:19:08;6.55;;;5.35;;
64986;SDS011;67903;52.108;9.358;2023-09-08T09:21:54;6.40;;;5.15;;
64986;SDS011;67903;52.108;9.358;2023-09-08T09:24:40;6.13;;;5.05;;
64986;SDS011;67903;52.108;9.358;2023-09-08T09:27:30;6.13;;;5.55;;
64986;SDS011;67903;52.108;9.358;2023-09-08T09:30:16;8.30;;;5.43;;
64986;SDS011;67903;52.108;9.358;2023-09-08T09:33:04;5.75;;;5.25;;
64986;SDS011;67903;52.108;9.358;2023-09-08T09:35:52;6.03;;;5.15;;
64986;SDS011;67903;52.108;9.358;2023-09-08T09:38:38;6.53;;;5.05;;
64986;SDS011;67903;52.108;9.358;2023-09-08T09:41:24;7.43;;;5.65;;
64986;SDS011;67903;52.108;9.358;2023-09-08T09:44:10;5.65;;;5.05;;
64986;SDS011;67903;52.108;9.358;2023-09-08T09:46:56;6.05;;;5.55;;
64986;SDS011;67903;52.108;9.358;2023-09-08T09:49:42;6.93;;;5.30;;
64986;SDS011;67903;52.108;9.358;2023-09-08T09:52:30;5.43;;;4.93;;
64986;SDS011;67903;52.108;9.358;2023-09-08T09:55:16;6.50;;;5.88;;
64986;SDS011;67903;52.108;9.358;2023-09-08T09:58:02;5.30;;;4.80;;
64986;SDS011;67903;52.108;9.358;2023-09-08T10:00:51;5.63;;;5.13;;
64986;SDS011;67903;52.108;9.358;2023-09-08T10:03:38;6.82;;;5.00;;
64986;SDS011;67903;52.108;9.358;2023-09-08T10:06:25;5.38;;;4.88;;
64986;SDS011;67903;52.108;9.358;2023-09-08T10:09:11;8.02;;;5.32;;
64986;SDS011;67903;52.108;9.358;2023-09-08T10:12:03;6.05;;;4.90;;
64986;SDS011;67903;52.108;9.358;2023-09-08T10:14:50;5.82;;;5.22;;
64986;SDS011;67903;52.108;9.358;2023-09-08T10:17:40;6.65;;;5.00;;
64986;SDS011;67903;52.108;9.358;2023-09-08T10:20:29;5.30;;;4.78;;
64986;SDS011;67903;52.108;9.358;2023-09-08T10:23:19;6.80;;;5.05;;
64986;SDS011;67903;52.108;9.358;2023-09-08T10:26:10;6.45;;;5.85;;
64986;SDS011;67903;52.108;9.358;2023-09-08T10:28:56;7.00;;;5.07;;
64986;SDS011;67903;52.108;9.358;2023-09-08T10:31:42;5.95;;;5.38;;
64986;SDS011;67903;52.108;9.358;2023-09-08T10:34:30;5.43;;;4.95;;
64986;SDS011;67903;52.108;9.358;2023-09-08T10:37:23;6.03;;;5.07;;
64986;SDS011;67903;52.108;9.358;2023-09-08T10:40:20;5.78;;;5.28;;
64986;SDS011;67903;52.108;9.358;2023-09-08T10:43:11;5.65;;;5.10;;
64986;SDS011;67903;52.108;9.358;2023-09-08T10:45:57;5.75;;;5.25;;
64986;SDS011;67903;52.108;9.358;2023-09-08T10:48:43;6.30;;;5.50;;
64986;SDS011;67903;52.108;9.358;2023-09-08T10:51:29;5.20;;;4.70;;
64986;SDS011;67903;52.108;9.358;2023-09-08T10:54:40;8.13;;;4.93;;
64986;SDS011;67903;52.108;9.358;2023-09-08T10:57:27;5.80;;;5.00;;
64986;SDS011;67903;52.108;9.358;2023-09-08T11:00:17;5.65;;;4.95;;
64986;SDS011;67903;52.108;9.358;2023-09-08T11:03:03;5.60;;;4.88;;
64986;SDS011;67903;52.108;9.358;2023-09-08T11:05:49;5.60;;;5.03;;
64986;SDS011;67903;52.108;9.358;2023-09-08T11:08:40;5.35;;;4.80;;
64986;SDS011;67903;52.108;9.358;2023-09-08T11:11:27;7.45;;;4.72;;
64986;SDS011;67903;52.108;9.358;2023-09-08T11:14:18;4.85;;;4.45;;
64986;SDS011;67903;52.108;9.358;2023-09-08T11:17:04;5.93;;;4.70;;
64986;SDS011;67903;52.108;9.358;2023-09-08T11:19:49;6.53;;;4.38;;
64986;SDS011;67903;52.108;9.358;2023-09-08T11:22:35;5.32;;;4.82;;
64986;SDS011;67903;52.108;9.358;2023-09-08T11:25:21;5.47;;;4.38;;
64986;SDS011;67903;52.108;9.358;2023-09-08T11:28:07;5.28;;;4.78;;
64986;SDS011;67903;52.108;9.358;2023-09-08T11:30:53;4.88;;;4.47;;
64986;SDS011;67903;52.108;9.358;2023-09-08T11:33:39;5.35;;;4.85;;
64986;SDS011;67903;52.108;9.358;2023-09-08T11:36:25;5.47;;;4.47;;
64986;SDS011;67903;52.108;9.358;2023-09-08T11:39:10;5.30;;;4.90;;
64986;SDS011;67903;52.108;9.358;2023-09-08T11:41:56;5.18;;;4.68;;
64986;SDS011;67903;52.108;9.358;2023-09-08T11:44:43;4.65;;;4.22;;
64986;SDS011;67903;52.108;9.358;2023-09-08T11:47:29;5.38;;;4.57;;
64986;SDS011;67903;52.108;9.358;2023-09-08T11:50:17;5.00;;;4.60;;
64986;SDS011;67903;52.108;9.358;2023-09-08T11:53:04;5.85;;;4.80;;
64986;SDS011;67903;52.108;9.358;2023-09-08T11:55:51;5.72;;;4.90;;
64986;SDS011;67903;52.108;9.358;2023-09-08T11:58:36;5.22;;;4.72;;
64986;SDS011;67903;52.108;9.358;2023-09-08T12:01:22;5.22;;;4.70;;
64986;SDS011;67903;52.108;9.358;2023-09-08T12:04:13;4.85;;;4.45;;
64986;SDS011;67903;52.108;9.358;2023-09-08T12:07:05;4.63;;;4.22;;
64986;SDS011;67903;52.108;9.358;2023-09-08T12:09:51;4.75;;;4.35;;
64986;SDS011;67903;52.108;9.358;2023-09-08T12:12:41;6.47;;;4.25;;
64986;SDS011;67903;52.108;9.358;2023-09-08T12:18:28;7.25;;;4.45;;
64986;SDS011;67903;52.108;9.358;2023-09-08T12:21:23;4.72;;;4.32;;
64986;SDS011;67903;52.108;9.358;2023-09-08T12:24:08;4.68;;;4.28;;
64986;SDS011;67903;52.108;9.358;2023-09-08T12:26:57;6.25;;;4.72;;
64986;SDS011;67903;52.108;9.358;2023-09-08T12:29:59;5.30;;;4.80;;
64986;SDS011;67903;52.108;9.358;2023-09-08T12:32:46;4.72;;;4.32;;
64986;SDS011;67903;52.108;9.358;2023-09-08T12:35:33;4.55;;;4.15;;
64986;SDS011;67903;52.108;9.358;2023-09-08T12:38:19;4.82;;;4.43;;
64986;SDS011;67903;52.108;9.358;2023-09-08T12:41:05;5.93;;;4.85;;
64986;SDS011;67903;52.108;9.358;2023-09-08T12:43:50;4.45;;;4.05;;
64986;SDS011;67903;52.108;9.358;2023-09-08T12:46:36;6.03;;;4.30;;
64986;SDS011;67903;52.108;9.358;2023-09-08T12:49:21;4.32;;;3.85;;
64986;SDS011;67903;52.108;9.358;2023-09-08T12:52:07;4.22;;;3.78;;
64986;SDS011;67903;52.108;9.358;2023-09-08T12:54:52;6.60;;;4.18;;
64986;SDS011;67903;52.108;9.358;2023-09-08T12:57:38;4.10;;;3.80;;
64986;SDS011;67903;52.108;9.358;2023-09-08T13:00:24;4.93;;;3.97;;
64986;SDS011;67903;52.108;9.358;2023-09-08T13:03:10;4.93;;;4.43;;
64986;SDS011;67903;52.108;9.358;2023-09-08T13:05:55;5.07;;;4.55;;
64986;SDS011;67903;52.108;9.358;2023-09-08T13:08:41;5.13;;;4.63;;
64986;SDS011;67903;52.108;9.358;2023-09-08T13:11:26;4.72;;;4.20;;
64986;SDS011;67903;52.108;9.358;2023-09-08T13:14:12;4.47;;;4.07;;
64986;SDS011;67903;52.108;9.358;2023-09-08T13:16:58;4.00;;;3.70;;
64986;SDS011;67903;52.108;9.358;2023-09-08T13:19:44;6.72;;;4.72;;
64986;SDS011;67903;52.108;9.358;2023-09-08T13:22:29;5.15;;;4.65;;
64986;SDS011;67903;52.108;9.358;2023-09-08T13:25:15;5.20;;;4.00;;
64986;SDS011;67903;52.108;9.358;2023-09-08T13:28:00;4.72;;;4.35;;
64986;SDS011;67903;52.108;9.358;2023-09-08T13:30:46;4.70;;;4.10;;
64986;SDS011;67903;52.108;9.358;2023-09-08T13:33:32;4.47;;;4.07;;
64986;SDS011;67903;52.108;9.358;2023-09-08T13:36:17;6.50;;;4.10;;
64986;SDS011;67903;52.108;9.358;2023-09-08T13:39:03;5.72;;;4.47;;
64986;SDS011;67903;52.108;9.358;2023-09-08T13:41:53;4.85;;;3.72;;
64986;SDS011;67903;52.108;9.358;2023-09-08T13:44:39;4.50;;;4.10;;
64986;SDS011;67903;52.108;9.358;2023-09-08T13:47:26;5.45;;;4.03;;
64986;SDS011;67903;52.108;9.358;2023-09-08T13:50:12;4.20;;;3.80;;
64986;SDS011;67903;52.108;9.358;2023-09-08T13:52:58;5.15;;;3.80;;
64986;SDS011;67903;52.108;9.358;2023-09-08T13:55:44;7.13;;;4.57;;
64986;SDS011;67903;52.108;9.358;2023-09-08T13:58:35;4.35;;;3.97;;
64986;SDS011;67903;52.108;9.358;2023-09-08T14:01:34;3.83;;;3.53;;
64986;SDS011;67903;52.108;9.358;2023-09-08T14:04:25;6.30;;;4.40;;
64986;SDS011;67903;52.108;9.358;2023-09-08T14:07:16;5.40;;;4.30;;
64986;SDS011;67903;52.108;9.358;2023-09-08T14:10:10;4.45;;;4.05;;
64986;SDS011;67903;52.108;9.358;2023-09-08T14:12:59;4.72;;;4.32;;
64986;SDS011;67903;52.108;9.358;2023-09-08T14:15:44;5.78;;;4.65;;
64986;SDS011;67903;52.108;9.358;2023-09-08T14:18:30;5.63;;;5.05;;
64986;SDS011;67903;52.108;9.358;2023-09-08T14:21:15;5.53;;;3.95;;
64986;SDS011;67903;52.108;9.358;2023-09-08T14:24:01;6.78;;;6.10;;
64986;SDS011;67903;52.108;9.358;2023-09-08T14:26:47;7.65;;;5.43;;
64986;SDS011;67903;52.108;9.358;2023-09-08T14:29:33;8.27;;;6.22;;
64986;SDS011;67903;52.108;9.358;2023-09-08T14:32:19;6.07;;;5.57;;
64986;SDS011;67903;52.108;9.358;2023-09-08T14:35:04;7.32;;;6.30;;
64986;SDS011;67903;52.108;9.358;2023-09-08T14:37:50;8.95;;;8.15;;
64986;SDS011;67903;52.108;9.358;2023-09-08T14:40:36;21.48;;;19.77;;
64986;SDS011;67903;52.108;9.358;2023-09-08T14:43:21;7.70;;;6.90;;
64986;SDS011;67903;52.108;9.358;2023-09-08T14:46:07;6.30;;;5.70;;
64986;SDS011;67903;52.108;9.358;2023-09-08T14:48:52;5.90;;;5.03;;
64986;SDS011;67903;52.108;9.358;2023-09-08T14:51:38;6.95;;;5.93;;
64986;SDS011;67903;52.108;9.358;2023-09-08T14:54:24;6.03;;;5.13;;
64986;SDS011;67903;52.108;9.358;2023-09-08T14:57:10;5.65;;;5.15;;
64986;SDS011;67903;52.108;9.358;2023-09-08T14:59:56;5.20;;;4.80;;
64986;SDS011;67903;52.108;9.358;2023-09-08T15:02:41;6.40;;;5.80;;
64986;SDS011;67903;52.108;9.358;2023-09-08T15:05:27;5.75;;;5.05;;
64986;SDS011;67903;52.108;9.358;2023-09-08T15:08:12;7.65;;;5.03;;
64986;SDS011;67903;52.108;9.358;2023-09-08T15:10:58;5.90;;;4.70;;
64986;SDS011;67903;52.108;9.358;2023-09-08T15:13:43;6.32;;;4.85;;
64986;SDS011;67903;52.108;9.358;2023-09-08T15:16:29;5.38;;;4.88;;
64986;SDS011;67903;52.108;9.358;2023-09-08T15:19:14;6.40;;;5.20;;
64986;SDS011;67903;52.108;9.358;2023-09-08T15:22:00;4.82;;;4.32;;
64986;SDS011;67903;52.108;9.358;2023-09-08T15:24:45;5.05;;;4.53;;
64986;SDS011;67903;52.108;9.358;2023-09-08T15:27:31;5.45;;;4.95;;
64986;SDS011;67903;52.108;9.358;2023-09-08T15:30:16;5.55;;;4.70;;
64986;SDS011;67903;52.108;9.358;2023-09-08T15:33:03;4.70;;;4.30;;
64986;SDS011;67903;52.108;9.358;2023-09-08T15:35:51;4.60;;;4.13;;
64986;SDS011;67903;52.108;9.358;2023-09-08T15:38:37;4.70;;;4.22;;
64986;SDS011;67903;52.108;9.358;2023-09-08T15:41:23;6.38;;;4.70;;
64986;SDS011;67903;52.108;9.358;2023-09-08T15:44:08;4.57;;;3.97;;
64986;SDS011;67903;52.108;9.358;2023-09-08T15:46:54;4.85;;;4.35;;
64986;SDS011;67903;52.108;9.358;2023-09-08T15:49:39;4.60;;;4.07;;
64986;SDS011;67903;52.108;9.358;2023-09-08T15:52:25;8.40;;;7.53;;
64986;SDS011;67903;52.108;9.358;2023-09-08T15:55:11;9.05;;;8.13;;
64986;SDS011;67903;52.108;9.358;2023-09-08T15:57:56;5.35;;;4.80;;
64986;SDS011;67903;52.108;9.358;2023-09-08T16:00:42;5.00;;;4.60;;
64986;SDS011;67903;52.108;9.358;2023-09-08T16:03:28;4.85;;;4.45;;
64986;SDS011;67903;52.108;9.358;2023-09-08T16:06:14;5.35;;;4.50;;
64986;SDS011;67903;52.108;9.358;2023-09-08T16:08:59;5.68;;;4.72;;
64986;SDS011;67903;52.108;9.358;2023-09-08T16:11:45;4.53;;;4.13;;
64986;SDS011;67903;52.108;9.358;2023-09-08T16:14:31;6.13;;;4.90;;
64986;SDS011;67903;52.108;9.358;2023-09-08T16:17:17;5.55;;;4.68;;
64986;SDS011;67903;52.108;9.358;2023-09-08T16:20:03;6.13;;;5.03;;
64986;SDS011;67903;52.108;9.358;2023-09-08T16:22:49;5.40;;;4.30;;
64986;SDS011;67903;52.108;9.358;2023-09-08T16:25:35;5.25;;;4.30;;
64986;SDS011;67903;52.108;9.358;2023-09-08T16:28:20;4.63;;;4.22;;
64986;SDS011;67903;52.108;9.358;2023-09-08T16:31:08;4.60;;;4.20;;
64986;SDS011;67903;52.108;9.358;2023-09-08T16:33:53;6.15;;;4.38;;
64986;SDS011;67903;52.108;9.358;2023-09-08T16:36:39;4.75;;;4.25;;
64986;SDS011;67903;52.108;9.358;2023-09-08T16:39:24;6.00;;;4.38;;
64986;SDS011;67903;52.108;9.358;2023-09-08T16:42:11;5.70;;;4.32;;
64986;SDS011;67903;52.108;9.358;2023-09-08T16:44:57;4.40;;;4.00;;
64986;SDS011;67903;52.108;9.358;2023-09-08T16:47:42;5.05;;;4.15;;
64986;SDS011;67903;52.108;9.358;2023-09-08T16:50:27;5.88;;;4.40;;
64986;SDS011;67903;52.108;9.358;2023-09-08T16:53:13;4.47;;;3.90;;